sensor_id;sensor_type;location;lat;lon;timestamp;temperature;humidity
64817;DHT22;53289;45.602;11.904;2023-01-29T00:00:38;0.50;69.10
64817;DHT22;53289;45.602;11.904;2023-01-29T00:03:04;0.40;68.00
64817;DHT22;53289;45.602;11.904;2023-01-29T00:05:30;0.50;67.70
64817;DHT22;53289;45.602;11.904;2023-01-29T00:07:56;0.40;67.30
64817;DHT22;53289;45.602;11.904;2023-01-29T00:10:23;0.40;67.30
64817;DHT22;53289;45.602;11.904;2023-01-29T00:12:49;0.40;67.70
64817;DHT22;53289;45.602;11.904;2023-01-29T00:15:16;0.40;67.50
64817;DHT22;53289;45.602;11.904;2023-01-29T00:17:43;0.40;67.90
64817;DHT22;53289;45.602;11.904;2023-01-29T00:20:10;0.30;67.60
64817;DHT22;53289;45.602;11.904;2023-01-29T00:22:36;0.30;68.60
64817;DHT22;53289;45.602;11.904;2023-01-29T00:25:02;0.30;68.40
64817;DHT22;53289;45.602;11.904;2023-01-29T00:27:28;0.20;68.40
64817;DHT22;53289;45.602;11.904;2023-01-29T00:29:54;0.20;67.90
64817;DHT22;53289;45.602;11.904;2023-01-29T00:32:38;0.20;68.50
64817;DHT22;53289;45.602;11.904;2023-01-29T00:35:06;0.20;68.80
64817;DHT22;53289;45.602;11.904;2023-01-29T00:37:32;0.10;68.30
64817;DHT22;53289;45.602;11.904;2023-01-29T00:39:58;0.00;68.50
64817;DHT22;53289;45.602;11.904;2023-01-29T00:42:24;0.10;68.40
64817;DHT22;53289;45.602;11.904;2023-01-29T00:45:10;0.10;69.50
64817;DHT22;53289;45.602;11.904;2023-01-29T00:47:36;0.00;69.70
64817;DHT22;53289;45.602;11.904;2023-01-29T00:50:07;0.10;69.70
64817;DHT22;53289;45.602;11.904;2023-01-29T00:52:34;0.00;69.50
64817;DHT22;53289;45.602;11.904;2023-01-29T00:55:02;0.00;69.00
64817;DHT22;53289;45.602;11.904;2023-01-29T00:57:30;0.10;69.50
64817;DHT22;53289;45.602;11.904;2023-01-29T00:59:57;0.10;69.60
64817;DHT22;53289;45.602;11.904;2023-01-29T01:02:23;0.10;69.20
64817;DHT22;53289;45.602;11.904;2023-01-29T01:05:09;0.10;70.20
64817;DHT22;53289;45.602;11.904;2023-01-29T01:07:39;0.10;68.90
64817;DHT22;53289;45.602;11.904;2023-01-29T01:10:06;0.20;68.70
64817;DHT22;53289;45.602;11.904;2023-01-29T01:12:58;0.20;69.10
64817;DHT22;53289;45.602;11.904;2023-01-29T01:15:28;0.30;69.30
64817;DHT22;53289;45.602;11.904;2023-01-29T01:17:58;0.30;69.10
64817;DHT22;53289;45.602;11.904;2023-01-29T01:20:26;0.30;69.00
64817;DHT22;53289;45.602;11.904;2023-01-29T01:22:53;0.30;69.00
64817;DHT22;53289;45.602;11.904;2023-01-29T01:25:21;0.30;69.00
64817;DHT22;53289;45.602;11.904;2023-01-29T01:27:47;0.40;69.60
64817;DHT22;53289;45.602;11.904;2023-01-29T01:30:16;0.40;69.80
64817;DHT22;53289;45.602;11.904;2023-01-29T01:32:42;0.40;69.50
64817;DHT22;53289;45.602;11.904;2023-01-29T01:35:09;0.50;69.40
64817;DHT22;53289;45.602;11.904;2023-01-29T01:37:36;0.50;69.40
64817;DHT22;53289;45.602;11.904;2023-01-29T01:40:10;0.50;69.10
64817;DHT22;53289;45.602;11.904;2023-01-29T01:42:39;0.50;68.70
64817;DHT22;53289;45.602;11.904;2023-01-29T01:45:07;0.50;69.10
64817;DHT22;53289;45.602;11.904;2023-01-29T01:50:41;0.50;69.00
64817;DHT22;53289;45.602;11.904;2023-01-29T01:53:12;0.40;69.10
64817;DHT22;53289;45.602;11.904;2023-01-29T01:55:42;0.40;69.30
64817;DHT22;53289;45.602;11.904;2023-01-29T01:58:11;0.50;69.60
64817;DHT22;53289;45.602;11.904;2023-01-29T02:00:41;0.50;69.70
64817;DHT22;53289;45.602;11.904;2023-01-29T02:03:08;0.50;69.40
64817;DHT22;53289;45.602;11.904;2023-01-29T02:05:56;0.60;69.50
64817;DHT22;53289;45.602;11.904;2023-01-29T02:08:48;0.60;69.60
64817;DHT22;53289;45.602;11.904;2023-01-29T02:11:36;0.60;69.60
64817;DHT22;53289;45.602;11.904;2023-01-29T02:14:02;0.60;70.10
64817;DHT22;53289;45.602;11.904;2023-01-29T02:16:28;0.70;70.10
64817;DHT22;53289;45.602;11.904;2023-01-29T02:18:55;0.70;70.30
64817;DHT22;53289;45.602;11.904;2023-01-29T02:24:22;0.70;69.10
64817;DHT22;53289;45.602;11.904;2023-01-29T02:27:13;0.70;69.10
64817;DHT22;53289;45.602;11.904;2023-01-29T02:30:08;0.70;68.90
64817;DHT22;53289;45.602;11.904;2023-01-29T02:32:59;0.70;69.10
64817;DHT22;53289;45.602;11.904;2023-01-29T02:35:43;0.70;69.20
64817;DHT22;53289;45.602;11.904;2023-01-29T02:41:24;0.70;68.90
64817;DHT22;53289;45.602;11.904;2023-01-29T02:46:54;0.80;69.10
64817;DHT22;53289;45.602;11.904;2023-01-29T02:54:46;0.90;69.30
64817;DHT22;53289;45.602;11.904;2023-01-29T02:57:23;0.90;69.50
64817;DHT22;53289;45.602;11.904;2023-01-29T03:02:36;0.90;69.30
64817;DHT22;53289;45.602;11.904;2023-01-29T03:05:03;0.90;69.60
64817;DHT22;53289;45.602;11.904;2023-01-29T03:07:36;1.00;70.80
64817;DHT22;53289;45.602;11.904;2023-01-29T03:12:44;1.10;70.20
64817;DHT22;53289;45.602;11.904;2023-01-29T03:15:17;1.10;70.90
64817;DHT22;53289;45.602;11.904;2023-01-29T03:20:57;1.20;69.60
64817;DHT22;53289;45.602;11.904;2023-01-29T03:23:28;1.20;70.00
64817;DHT22;53289;45.602;11.904;2023-01-29T03:26:19;1.30;70.10
64817;DHT22;53289;45.602;11.904;2023-01-29T03:29:05;1.30;70.00
64817;DHT22;53289;45.602;11.904;2023-01-29T03:31:51;1.30;70.10
64817;DHT22;53289;45.602;11.904;2023-01-29T03:34:40;1.30;70.10
64817;DHT22;53289;45.602;11.904;2023-01-29T03:39:58;1.20;69.90
64817;DHT22;53289;45.602;11.904;2023-01-29T03:50:52;1.20;70.00
64817;DHT22;53289;45.602;11.904;2023-01-29T03:53:27;1.20;70.20
64817;DHT22;53289;45.602;11.904;2023-01-29T03:56:02;1.20;70.30
64817;DHT22;53289;45.602;11.904;2023-01-29T04:03:38;1.10;70.70
64817;DHT22;53289;45.602;11.904;2023-01-29T04:06:13;1.20;70.50
64817;DHT22;53289;45.602;11.904;2023-01-29T04:11:47;1.20;70.40
64817;DHT22;53289;45.602;11.904;2023-01-29T04:14:15;1.20;70.40
64817;DHT22;53289;45.602;11.904;2023-01-29T04:16:46;1.30;70.80
64817;DHT22;53289;45.602;11.904;2023-01-29T04:19:13;1.30;70.70
64817;DHT22;53289;45.602;11.904;2023-01-29T04:21:40;1.40;70.60
64817;DHT22;53289;45.602;11.904;2023-01-29T04:24:07;1.40;70.70
64817;DHT22;53289;45.602;11.904;2023-01-29T04:37:42;1.50;70.00
64817;DHT22;53289;45.602;11.904;2023-01-29T04:40:33;1.50;70.10
64817;DHT22;53289;45.602;11.904;2023-01-29T04:45:50;1.60;70.10
64817;DHT22;53289;45.602;11.904;2023-01-29T04:50:56;1.60;71.30
64817;DHT22;53289;45.602;11.904;2023-01-29T04:58:48;1.70;70.80
64817;DHT22;53289;45.602;11.904;2023-01-29T05:01:18;1.70;70.50
64817;DHT22;53289;45.602;11.904;2023-01-29T05:03:48;1.60;72.00
64817;DHT22;53289;45.602;11.904;2023-01-29T05:06:16;1.60;70.80
64817;DHT22;53289;45.602;11.904;2023-01-29T05:08:43;1.60;70.90
64817;DHT22;53289;45.602;11.904;2023-01-29T05:11:10;1.60;70.60
64817;DHT22;53289;45.602;11.904;2023-01-29T05:13:37;1.60;70.70
64817;DHT22;53289;45.602;11.904;2023-01-29T05:16:24;1.60;71.10
64817;DHT22;53289;45.602;11.904;2023-01-29T05:18:50;1.60;70.50
64817;DHT22;53289;45.602;11.904;2023-01-29T05:21:16;1.60;71.00
64817;DHT22;53289;45.602;11.904;2023-01-29T05:23:43;1.60;70.70
64817;DHT22;53289;45.602;11.904;2023-01-29T05:26:20;1.60;70.60
64817;DHT22;53289;45.602;11.904;2023-01-29T05:29:05;1.60;70.60
64817;DHT22;53289;45.602;11.904;2023-01-29T05:31:34;1.60;70.60
64817;DHT22;53289;45.602;11.904;2023-01-29T05:34:00;1.60;70.70
64817;DHT22;53289;45.602;11.904;2023-01-29T05:36:26;1.60;70.70
64817;DHT22;53289;45.602;11.904;2023-01-29T05:38:52;1.60;70.80
64817;DHT22;53289;45.602;11.904;2023-01-29T05:41:18;1.60;70.70
64817;DHT22;53289;45.602;11.904;2023-01-29T05:43:44;1.60;71.00
64817;DHT22;53289;45.602;11.904;2023-01-29T05:46:10;1.70;70.70
64817;DHT22;53289;45.602;11.904;2023-01-29T05:48:36;1.70;70.50
64817;DHT22;53289;45.602;11.904;2023-01-29T05:51:03;1.70;70.60
64817;DHT22;53289;45.602;11.904;2023-01-29T05:53:30;1.70;70.70
64817;DHT22;53289;45.602;11.904;2023-01-29T05:56:00;1.70;70.90
64817;DHT22;53289;45.602;11.904;2023-01-29T05:58:27;1.70;70.80
64817;DHT22;53289;45.602;11.904;2023-01-29T06:00:52;1.70;70.80
64817;DHT22;53289;45.602;11.904;2023-01-29T06:03:18;1.70;70.70
64817;DHT22;53289;45.602;11.904;2023-01-29T06:05:45;1.80;70.80
64817;DHT22;53289;45.602;11.904;2023-01-29T06:08:10;1.70;71.00
64817;DHT22;53289;45.602;11.904;2023-01-29T06:10:36;1.70;71.10
64817;DHT22;53289;45.602;11.904;2023-01-29T06:13:02;1.70;71.40
64817;DHT22;53289;45.602;11.904;2023-01-29T06:15:28;1.80;71.30
64817;DHT22;53289;45.602;11.904;2023-01-29T06:17:55;1.80;71.50
64817;DHT22;53289;45.602;11.904;2023-01-29T06:20:22;1.80;71.30
64817;DHT22;53289;45.602;11.904;2023-01-29T06:22:48;1.80;71.10
64817;DHT22;53289;45.602;11.904;2023-01-29T06:25:14;1.80;71.10
64817;DHT22;53289;45.602;11.904;2023-01-29T06:27:40;1.80;71.00
64817;DHT22;53289;45.602;11.904;2023-01-29T06:30:06;1.80;71.00
64817;DHT22;53289;45.602;11.904;2023-01-29T06:32:33;1.80;71.20
64817;DHT22;53289;45.602;11.904;2023-01-29T06:34:59;1.80;71.20
64817;DHT22;53289;45.602;11.904;2023-01-29T06:37:24;1.80;71.40
64817;DHT22;53289;45.602;11.904;2023-01-29T06:39:50;1.80;71.40
64817;DHT22;53289;45.602;11.904;2023-01-29T06:42:16;1.80;71.40
64817;DHT22;53289;45.602;11.904;2023-01-29T06:44:43;1.80;71.30
64817;DHT22;53289;45.602;11.904;2023-01-29T06:47:09;1.80;71.30
64817;DHT22;53289;45.602;11.904;2023-01-29T06:49:35;1.90;71.50
64817;DHT22;53289;45.602;11.904;2023-01-29T06:52:01;1.90;71.60
64817;DHT22;53289;45.602;11.904;2023-01-29T06:54:27;1.90;71.80
64817;DHT22;53289;45.602;11.904;2023-01-29T06:56:53;1.90;71.60
64817;DHT22;53289;45.602;11.904;2023-01-29T06:59:20;1.90;71.50
64817;DHT22;53289;45.602;11.904;2023-01-29T07:01:46;1.90;71.40
64817;DHT22;53289;45.602;11.904;2023-01-29T07:04:12;1.90;71.80
64817;DHT22;53289;45.602;11.904;2023-01-29T07:06:38;1.90;71.70
64817;DHT22;53289;45.602;11.904;2023-01-29T07:09:04;1.90;71.70
64817;DHT22;53289;45.602;11.904;2023-01-29T07:11:30;1.90;71.70
64817;DHT22;53289;45.602;11.904;2023-01-29T07:13:56;1.90;72.00
64817;DHT22;53289;45.602;11.904;2023-01-29T07:16:22;1.90;72.10
64817;DHT22;53289;45.602;11.904;2023-01-29T07:18:49;1.90;72.40
64817;DHT22;53289;45.602;11.904;2023-01-29T07:21:15;2.00;72.00
64817;DHT22;53289;45.602;11.904;2023-01-29T07:23:41;2.00;72.00
64817;DHT22;53289;45.602;11.904;2023-01-29T07:26:07;2.10;71.80
64817;DHT22;53289;45.602;11.904;2023-01-29T07:28:38;2.10;72.50
64817;DHT22;53289;45.602;11.904;2023-01-29T07:31:04;2.10;72.20
64817;DHT22;53289;45.602;11.904;2023-01-29T07:33:31;2.10;72.30
64817;DHT22;53289;45.602;11.904;2023-01-29T07:35:57;2.10;72.40
64817;DHT22;53289;45.602;11.904;2023-01-29T07:38:23;2.10;72.20
64817;DHT22;53289;45.602;11.904;2023-01-29T07:40:51;2.20;72.50
64817;DHT22;53289;45.602;11.904;2023-01-29T07:43:17;2.20;72.50
64817;DHT22;53289;45.602;11.904;2023-01-29T07:45:43;2.30;72.70
64817;DHT22;53289;45.602;11.904;2023-01-29T07:48:12;2.30;72.60
64817;DHT22;53289;45.602;11.904;2023-01-29T07:50:38;2.40;72.50
64817;DHT22;53289;45.602;11.904;2023-01-29T07:53:04;2.40;72.00
64817;DHT22;53289;45.602;11.904;2023-01-29T07:55:31;2.40;71.80
64817;DHT22;53289;45.602;11.904;2023-01-29T07:58:00;2.40;71.70
64817;DHT22;53289;45.602;11.904;2023-01-29T08:00:26;2.50;71.70
64817;DHT22;53289;45.602;11.904;2023-01-29T08:02:52;2.60;71.50
64817;DHT22;53289;45.602;11.904;2023-01-29T08:05:19;2.70;71.40
64817;DHT22;53289;45.602;11.904;2023-01-29T08:07:45;2.80;71.40
64817;DHT22;53289;45.602;11.904;2023-01-29T08:10:11;2.90;71.60
64817;DHT22;53289;45.602;11.904;2023-01-29T08:12:36;3.00;71.00
64817;DHT22;53289;45.602;11.904;2023-01-29T08:15:02;3.10;70.90
64817;DHT22;53289;45.602;11.904;2023-01-29T08:17:28;3.20;70.50
64817;DHT22;53289;45.602;11.904;2023-01-29T08:19:54;3.30;70.60
64817;DHT22;53289;45.602;11.904;2023-01-29T08:22:20;3.30;70.30
64817;DHT22;53289;45.602;11.904;2023-01-29T08:24:46;3.40;69.80
64817;DHT22;53289;45.602;11.904;2023-01-29T08:27:12;3.50;69.80
64817;DHT22;53289;45.602;11.904;2023-01-29T08:29:37;3.60;69.70
64817;DHT22;53289;45.602;11.904;2023-01-29T08:32:03;3.70;69.60
64817;DHT22;53289;45.602;11.904;2023-01-29T08:34:29;3.90;69.10
64817;DHT22;53289;45.602;11.904;2023-01-29T08:36:55;4.00;68.50
64817;DHT22;53289;45.602;11.904;2023-01-29T08:39:21;4.10;68.00
64817;DHT22;53289;45.602;11.904;2023-01-29T08:41:46;4.30;67.70
64817;DHT22;53289;45.602;11.904;2023-01-29T08:44:12;4.40;67.80
64817;DHT22;53289;45.602;11.904;2023-01-29T08:46:38;4.60;67.30
64817;DHT22;53289;45.602;11.904;2023-01-29T08:49:05;4.70;67.20
64817;DHT22;53289;45.602;11.904;2023-01-29T08:51:33;4.90;66.80
64817;DHT22;53289;45.602;11.904;2023-01-29T08:53:58;5.10;65.90
64817;DHT22;53289;45.602;11.904;2023-01-29T08:56:24;5.20;66.00
64817;DHT22;53289;45.602;11.904;2023-01-29T08:58:50;5.50;64.70
64817;DHT22;53289;45.602;11.904;2023-01-29T09:01:16;5.60;64.70
64817;DHT22;53289;45.602;11.904;2023-01-29T09:03:42;5.80;64.30
64817;DHT22;53289;45.602;11.904;2023-01-29T09:06:11;6.00;63.80
64817;DHT22;53289;45.602;11.904;2023-01-29T09:08:38;6.30;62.90
64817;DHT22;53289;45.602;11.904;2023-01-29T09:11:04;6.40;62.20
64817;DHT22;53289;45.602;11.904;2023-01-29T09:13:30;6.70;61.20
64817;DHT22;53289;45.602;11.904;2023-01-29T09:16:00;6.90;61.60
64817;DHT22;53289;45.602;11.904;2023-01-29T09:18:27;7.00;61.70
64817;DHT22;53289;45.602;11.904;2023-01-29T09:20:54;7.20;58.80
64817;DHT22;53289;45.602;11.904;2023-01-29T09:23:20;7.30;59.70
64817;DHT22;53289;45.602;11.904;2023-01-29T09:25:46;7.40;56.50
64817;DHT22;53289;45.602;11.904;2023-01-29T09:28:12;7.60;56.30
64817;DHT22;53289;45.602;11.904;2023-01-29T09:30:38;7.70;57.70
64817;DHT22;53289;45.602;11.904;2023-01-29T09:33:06;7.80;56.20
64817;DHT22;53289;45.602;11.904;2023-01-29T09:35:33;7.90;56.50
64817;DHT22;53289;45.602;11.904;2023-01-29T09:38:00;8.00;56.60
64817;DHT22;53289;45.602;11.904;2023-01-29T09:40:37;8.00;57.00
64817;DHT22;53289;45.602;11.904;2023-01-29T09:46:17;8.40;56.50
64817;DHT22;53289;45.602;11.904;2023-01-29T09:48:45;8.70;55.50
64817;DHT22;53289;45.602;11.904;2023-01-29T09:51:26;8.90;55.60
64817;DHT22;53289;45.602;11.904;2023-01-29T09:56:35;9.10;52.70
64817;DHT22;53289;45.602;11.904;2023-01-29T09:59:01;9.10;51.90
64817;DHT22;53289;45.602;11.904;2023-01-29T10:07:17;9.50;53.10
64817;DHT22;53289;45.602;11.904;2023-01-29T10:15:12;10.00;51.90
64817;DHT22;53289;45.602;11.904;2023-01-29T10:25:46;11.10;49.20
64817;DHT22;53289;45.602;11.904;2023-01-29T10:28:38;11.40;48.60
64817;DHT22;53289;45.602;11.904;2023-01-29T10:31:29;11.80;47.90
64817;DHT22;53289;45.602;11.904;2023-01-29T10:36:43;12.20;48.30
64817;DHT22;53289;45.602;11.904;2023-01-29T10:39:19;12.40;47.50
64817;DHT22;53289;45.602;11.904;2023-01-29T10:47:46;12.80;45.70
64817;DHT22;53289;45.602;11.904;2023-01-29T10:50:47;13.00;43.30
64817;DHT22;53289;45.602;11.904;2023-01-29T10:53:32;13.00;44.00
64817;DHT22;53289;45.602;11.904;2023-01-29T10:58:54;13.30;41.60
64817;DHT22;53289;45.602;11.904;2023-01-29T11:01:21;13.40;40.90
64817;DHT22;53289;45.602;11.904;2023-01-29T11:04:02;13.50;41.30
64817;DHT22;53289;45.602;11.904;2023-01-29T11:06:30;13.40;41.30
64817;DHT22;53289;45.602;11.904;2023-01-29T11:09:11;13.20;42.50
64817;DHT22;53289;45.602;11.904;2023-01-29T11:12:17;13.20;43.00
64817;DHT22;53289;45.602;11.904;2023-01-29T11:14:39;13.20;41.30
64817;DHT22;53289;45.602;11.904;2023-01-29T11:17:17;13.10;41.50
64817;DHT22;53289;45.602;11.904;2023-01-29T11:19:45;13.10;41.10
64817;DHT22;53289;45.602;11.904;2023-01-29T11:22:18;13.00;42.70
64817;DHT22;53289;45.602;11.904;2023-01-29T11:24:45;13.20;43.10
64817;DHT22;53289;45.602;11.904;2023-01-29T11:27:33;13.50;42.80
64817;DHT22;53289;45.602;11.904;2023-01-29T11:33:21;13.80;42.50
64817;DHT22;53289;45.602;11.904;2023-01-29T11:35:51;13.90;42.90
64817;DHT22;53289;45.602;11.904;2023-01-29T11:38:27;14.20;41.00
64817;DHT22;53289;45.602;11.904;2023-01-29T11:41:05;14.40;40.10
64817;DHT22;53289;45.602;11.904;2023-01-29T11:43:32;14.80;37.60
64817;DHT22;53289;45.602;11.904;2023-01-29T11:46:03;14.90;38.50
64817;DHT22;53289;45.602;11.904;2023-01-29T11:48:43;15.20;38.20
64817;DHT22;53289;45.602;11.904;2023-01-29T11:51:19;15.20;38.00
64817;DHT22;53289;45.602;11.904;2023-01-29T11:53:52;15.00;38.80
64817;DHT22;53289;45.602;11.904;2023-01-29T11:56:38;14.90;39.10
64817;DHT22;53289;45.602;11.904;2023-01-29T11:59:34;14.90;38.50
64817;DHT22;53289;45.602;11.904;2023-01-29T12:02:17;15.20;38.40
64817;DHT22;53289;45.602;11.904;2023-01-29T12:04:45;15.40;35.60
64817;DHT22;53289;45.602;11.904;2023-01-29T12:07:15;15.50;35.30
64817;DHT22;53289;45.602;11.904;2023-01-29T12:09:49;15.50;36.30
64817;DHT22;53289;45.602;11.904;2023-01-29T12:12:26;15.20;37.10
64817;DHT22;53289;45.602;11.904;2023-01-29T12:17:30;14.90;37.30
64817;DHT22;53289;45.602;11.904;2023-01-29T12:20:00;14.90;36.90
64817;DHT22;53289;45.602;11.904;2023-01-29T12:22:44;15.10;35.60
64817;DHT22;53289;45.602;11.904;2023-01-29T12:27:59;14.90;36.90
64817;DHT22;53289;45.602;11.904;2023-01-29T12:33:00;15.10;37.30
64817;DHT22;53289;45.602;11.904;2023-01-29T12:35:43;15.30;36.30
64817;DHT22;53289;45.602;11.904;2023-01-29T12:38:18;15.40;36.30
64817;DHT22;53289;45.602;11.904;2023-01-29T12:40:49;15.30;36.90
64817;DHT22;53289;45.602;11.904;2023-01-29T12:43:26;15.40;36.70
64817;DHT22;53289;45.602;11.904;2023-01-29T12:45:54;15.40;37.20
64817;DHT22;53289;45.602;11.904;2023-01-29T12:48:33;15.40;37.30
64817;DHT22;53289;45.602;11.904;2023-01-29T12:51:27;15.20;37.30
64817;DHT22;53289;45.602;11.904;2023-01-29T12:54:06;15.40;36.70
64817;DHT22;53289;45.602;11.904;2023-01-29T12:56:35;15.30;36.80
64817;DHT22;53289;45.602;11.904;2023-01-29T13:01:55;14.90;38.00
64817;DHT22;53289;45.602;11.904;2023-01-29T13:07:32;14.60;38.20
64817;DHT22;53289;45.602;11.904;2023-01-29T13:10:12;14.40;38.90
64817;DHT22;53289;45.602;11.904;2023-01-29T13:12:44;14.30;38.60
64817;DHT22;53289;45.602;11.904;2023-01-29T13:15:25;14.10;39.70
64817;DHT22;53289;45.602;11.904;2023-01-29T13:18:01;14.00;39.80
64817;DHT22;53289;45.602;11.904;2023-01-29T13:20:33;14.50;37.80
64817;DHT22;53289;45.602;11.904;2023-01-29T13:23:12;14.60;37.50
64817;DHT22;53289;45.602;11.904;2023-01-29T13:25:40;14.70;37.50
64817;DHT22;53289;45.602;11.904;2023-01-29T13:28:17;14.70;37.00
64817;DHT22;53289;45.602;11.904;2023-01-29T13:30:43;14.60;37.60
64817;DHT22;53289;45.602;11.904;2023-01-29T13:33:20;14.60;37.90
64817;DHT22;53289;45.602;11.904;2023-01-29T13:35:47;14.80;37.30
64817;DHT22;53289;45.602;11.904;2023-01-29T13:38:27;14.60;37.80
64817;DHT22;53289;45.602;11.904;2023-01-29T13:41:03;14.50;38.00
64817;DHT22;53289;45.602;11.904;2023-01-29T13:43:35;14.50;38.10
64817;DHT22;53289;45.602;11.904;2023-01-29T13:46:14;14.70;37.70
64817;DHT22;53289;45.602;11.904;2023-01-29T13:48:44;14.90;36.90
64817;DHT22;53289;45.602;11.904;2023-01-29T13:51:19;14.90;37.10
64817;DHT22;53289;45.602;11.904;2023-01-29T13:53:59;14.90;37.20
64817;DHT22;53289;45.602;11.904;2023-01-29T13:59:01;14.70;37.90
64817;DHT22;53289;45.602;11.904;2023-01-29T14:06:51;14.90;37.50
64817;DHT22;53289;45.602;11.904;2023-01-29T14:12:32;15.00;37.10
64817;DHT22;53289;45.602;11.904;2023-01-29T14:15:14;15.10;36.80
64817;DHT22;53289;45.602;11.904;2023-01-29T14:25:54;14.90;37.80
64817;DHT22;53289;45.602;11.904;2023-01-29T14:28:27;14.80;38.20
64817;DHT22;53289;45.602;11.904;2023-01-29T14:30:54;14.80;38.30
64817;DHT22;53289;45.602;11.904;2023-01-29T14:33:39;14.80;38.40
64817;DHT22;53289;45.602;11.904;2023-01-29T14:36:12;14.80;38.50
64817;DHT22;53289;45.602;11.904;2023-01-29T14:38:40;14.70;38.40
64817;DHT22;53289;45.602;11.904;2023-01-29T14:41:24;14.70;39.00
64817;DHT22;53289;45.602;11.904;2023-01-29T14:46:55;14.30;39.60
64817;DHT22;53289;45.602;11.904;2023-01-29T14:49:50;14.20;40.10
64817;DHT22;53289;45.602;11.904;2023-01-29T14:52:19;13.90;40.50
64817;DHT22;53289;45.602;11.904;2023-01-29T14:54:46;13.80;40.90
64817;DHT22;53289;45.602;11.904;2023-01-29T14:57:15;13.60;41.40
64817;DHT22;53289;45.602;11.904;2023-01-29T14:59:53;13.40;41.90
64817;DHT22;53289;45.602;11.904;2023-01-29T15:02:37;13.20;42.60
64817;DHT22;53289;45.602;11.904;2023-01-29T15:05:09;13.10;42.90
64817;DHT22;53289;45.602;11.904;2023-01-29T15:07:43;12.90;43.30
64817;DHT22;53289;45.602;11.904;2023-01-29T15:10:38;12.80;43.70
64817;DHT22;53289;45.602;11.904;2023-01-29T15:13:40;12.50;44.60
64817;DHT22;53289;45.602;11.904;2023-01-29T15:16:23;12.20;45.20
64817;DHT22;53289;45.602;11.904;2023-01-29T15:18:55;12.00;45.90
64817;DHT22;53289;45.602;11.904;2023-01-29T15:21:21;11.80;46.30
64817;DHT22;53289;45.602;11.904;2023-01-29T15:24:03;11.40;46.70
64817;DHT22;53289;45.602;11.904;2023-01-29T15:26:29;11.20;47.20
64817;DHT22;53289;45.602;11.904;2023-01-29T15:28:58;10.80;47.60
64817;DHT22;53289;45.602;11.904;2023-01-29T15:31:24;10.60;48.30
64817;DHT22;53289;45.602;11.904;2023-01-29T15:33:52;10.40;48.80
64817;DHT22;53289;45.602;11.904;2023-01-29T15:36:22;10.20;49.30
64817;DHT22;53289;45.602;11.904;2023-01-29T15:41:34;10.00;50.30
64817;DHT22;53289;45.602;11.904;2023-01-29T15:44:00;9.80;50.30
64817;DHT22;53289;45.602;11.904;2023-01-29T15:46:29;9.60;50.50
64817;DHT22;53289;45.602;11.904;2023-01-29T15:49:00;9.50;50.80
64817;DHT22;53289;45.602;11.904;2023-01-29T15:51:27;9.50;51.00
64817;DHT22;53289;45.602;11.904;2023-01-29T15:53:58;9.30;51.30
64817;DHT22;53289;45.602;11.904;2023-01-29T15:56:28;9.20;51.60
64817;DHT22;53289;45.602;11.904;2023-01-29T15:58:58;9.10;51.90
64817;DHT22;53289;45.602;11.904;2023-01-29T16:01:28;9.00;52.20
64817;DHT22;53289;45.602;11.904;2023-01-29T16:03:56;8.90;52.40
64817;DHT22;53289;45.602;11.904;2023-01-29T16:06:26;8.70;52.50
64817;DHT22;53289;45.602;11.904;2023-01-29T16:08:53;8.60;52.80
64817;DHT22;53289;45.602;11.904;2023-01-29T16:11:20;8.50;52.90
64817;DHT22;53289;45.602;11.904;2023-01-29T16:13:48;8.40;53.10
64817;DHT22;53289;45.602;11.904;2023-01-29T16:18:44;8.20;53.70
64817;DHT22;53289;45.602;11.904;2023-01-29T16:21:21;8.10;53.80
64817;DHT22;53289;45.602;11.904;2023-01-29T16:23:50;8.00;54.20
64817;DHT22;53289;45.602;11.904;2023-01-29T16:26:24;7.90;54.40
64817;DHT22;53289;45.602;11.904;2023-01-29T16:28:51;7.80;54.60
64817;DHT22;53289;45.602;11.904;2023-01-29T16:31:24;7.60;54.70
64817;DHT22;53289;45.602;11.904;2023-01-29T16:33:52;7.50;54.90
64817;DHT22;53289;45.602;11.904;2023-01-29T16:36:21;7.30;55.20
64817;DHT22;53289;45.602;11.904;2023-01-29T16:39:02;7.20;55.40
64817;DHT22;53289;45.602;11.904;2023-01-29T16:41:31;7.10;55.60
64817;DHT22;53289;45.602;11.904;2023-01-29T16:44:01;6.90;55.90
64817;DHT22;53289;45.602;11.904;2023-01-29T16:46:34;6.90;56.20
64817;DHT22;53289;45.602;11.904;2023-01-29T16:49:01;6.80;56.50
64817;DHT22;53289;45.602;11.904;2023-01-29T16:51:38;6.60;56.80
64817;DHT22;53289;45.602;11.904;2023-01-29T16:54:11;6.60;57.00
64817;DHT22;53289;45.602;11.904;2023-01-29T16:56:38;6.50;57.10
64817;DHT22;53289;45.602;11.904;2023-01-29T16:59:05;6.40;57.20
64817;DHT22;53289;45.602;11.904;2023-01-29T17:01:33;6.40;57.40
64817;DHT22;53289;45.602;11.904;2023-01-29T17:04:12;6.30;57.60
64817;DHT22;53289;45.602;11.904;2023-01-29T17:06:43;6.20;57.90
64817;DHT22;53289;45.602;11.904;2023-01-29T17:09:20;6.10;58.10
64817;DHT22;53289;45.602;11.904;2023-01-29T17:11:47;6.10;58.30
64817;DHT22;53289;45.602;11.904;2023-01-29T17:14:22;5.90;58.40
64817;DHT22;53289;45.602;11.904;2023-01-29T17:16:53;5.90;58.60
64817;DHT22;53289;45.602;11.904;2023-01-29T17:19:20;5.70;58.80
64817;DHT22;53289;45.602;11.904;2023-01-29T17:21:46;5.70;59.40
64817;DHT22;53289;45.602;11.904;2023-01-29T17:24:12;5.50;59.70
64817;DHT22;53289;45.602;11.904;2023-01-29T17:26:38;5.40;59.80
64817;DHT22;53289;45.602;11.904;2023-01-29T17:29:04;5.30;60.40
64817;DHT22;53289;45.602;11.904;2023-01-29T17:31:32;5.10;60.70
64817;DHT22;53289;45.602;11.904;2023-01-29T17:33:58;5.00;60.90
64817;DHT22;53289;45.602;11.904;2023-01-29T17:36:24;4.90;61.30
64817;DHT22;53289;45.602;11.904;2023-01-29T17:38:50;4.80;61.40
64817;DHT22;53289;45.602;11.904;2023-01-29T17:41:29;4.70;61.50
64817;DHT22;53289;45.602;11.904;2023-01-29T17:43:55;4.60;61.80
64817;DHT22;53289;45.602;11.904;2023-01-29T17:46:21;4.60;61.90
64817;DHT22;53289;45.602;11.904;2023-01-29T17:48:47;4.50;62.10
64817;DHT22;53289;45.602;11.904;2023-01-29T17:51:17;4.40;61.60
64817;DHT22;53289;45.602;11.904;2023-01-29T17:53:43;4.40;62.10
64817;DHT22;53289;45.602;11.904;2023-01-29T17:56:36;4.40;62.10
64817;DHT22;53289;45.602;11.904;2023-01-29T17:59:12;4.40;61.80
64817;DHT22;53289;45.602;11.904;2023-01-29T18:01:38;4.30;62.10
64817;DHT22;53289;45.602;11.904;2023-01-29T18:04:04;4.20;62.30
64817;DHT22;53289;45.602;11.904;2023-01-29T18:06:30;4.20;62.70
64817;DHT22;53289;45.602;11.904;2023-01-29T18:08:56;4.10;63.30
64817;DHT22;53289;45.602;11.904;2023-01-29T18:11:23;4.00;63.50
64817;DHT22;53289;45.602;11.904;2023-01-29T18:13:49;3.90;63.60
64817;DHT22;53289;45.602;11.904;2023-01-29T18:16:15;3.80;63.60
64817;DHT22;53289;45.602;11.904;2023-01-29T18:18:43;3.70;64.10